createdAt,value
2023-05-22T00:00:05.868Z,32.66
2023-05-22T00:01:05.918Z,32.62
2023-05-22T00:02:05.993Z,32.64
2023-05-22T00:03:06.031Z,32.62
2023-05-22T00:04:06.073Z,32.63
2023-05-22T00:05:06.152Z,32.65
2023-05-22T00:06:06.196Z,32.68
2023-05-22T00:07:06.208Z,32.63
2023-05-22T00:08:06.245Z,32.64
2023-05-22T00:09:06.359Z,32.68
2023-05-22T00:10:06.360Z,32.68
2023-05-22T00:11:06.436Z,32.68
2023-05-22T00:12:06.421Z,32.68
2023-05-22T00:13:06.479Z,32.68
2023-05-22T00:14:06.507Z,32.71
2023-05-22T00:15:06.573Z,32.71
2023-05-22T00:16:06.622Z,32.71
2023-05-22T00:17:06.813Z,32.74
2023-05-22T00:18:06.780Z,32.68
2023-05-22T00:19:06.776Z,32.71
2023-05-22T00:20:06.805Z,32.71
2023-05-22T00:21:06.844Z,32.70
2023-05-22T00:22:06.892Z,32.73
2023-05-22T00:23:06.941Z,32.70
2023-05-22T00:24:06.998Z,32.70
2023-05-22T00:25:07.066Z,32.74
2023-05-22T00:26:07.086Z,32.73
2023-05-22T00:27:07.145Z,32.74
2023-05-22T00:28:07.193Z,32.75
2023-05-22T00:29:07.241Z,32.73
2023-05-22T00:30:07.290Z,32.75
2023-05-22T00:31:07.337Z,32.74
2023-05-22T00:32:07.391Z,32.75
2023-05-22T00:33:07.456Z,32.77
2023-05-22T00:34:07.555Z,32.73
2023-05-22T00:35:07.536Z,32.75
2023-05-22T00:36:07.588Z,32.78
2023-05-22T00:37:07.647Z,32.77
2023-05-22T00:38:07.696Z,32.77
2023-05-22T00:39:07.732Z,32.75
2023-05-22T00:40:07.796Z,32.75
2023-05-22T00:41:07.834Z,32.75
2023-05-22T00:42:07.885Z,32.78
2023-05-22T00:43:07.935Z,32.74
2023-05-22T00:44:08.062Z,32.77
2023-05-22T00:45:08.068Z,32.81
2023-05-22T00:46:08.151Z,32.74
2023-05-22T00:47:08.190Z,32.77
2023-05-22T00:48:08.265Z,32.82
2023-05-22T00:49:08.297Z,32.77
2023-05-22T00:50:08.321Z,32.81
2023-05-22T00:51:08.365Z,32.82
2023-05-22T00:52:08.434Z,32.77
2023-05-22T00:53:08.477Z,32.81
2023-05-22T00:54:08.541Z,32.78
2023-05-22T00:55:08.617Z,32.78
2023-05-22T00:56:08.635Z,32.81
2023-05-22T00:57:08.738Z,32.82
2023-05-22T00:58:08.728Z,32.77
2023-05-22T00:59:08.784Z,32.82
2023-05-22T01:00:08.847Z,32.80
2023-05-22T01:01:08.889Z,32.88
2023-05-22T01:02:09.046Z,32.81
2023-05-22T01:03:09.145Z,32.87
2023-05-22T01:04:09.204Z,32.82
2023-05-22T01:05:09.096Z,32.80
2023-05-22T01:06:09.155Z,32.85
2023-05-22T01:07:09.201Z,32.81
2023-05-22T01:08:09.315Z,32.82
2023-05-22T01:09:09.297Z,32.84
2023-05-22T01:10:09.338Z,32.84
2023-05-22T01:11:09.406Z,32.81
2023-05-22T01:12:09.460Z,32.86
2023-05-22T01:13:09.503Z,32.86
2023-05-22T01:14:09.536Z,32.88
2023-05-22T01:15:09.579Z,32.85
2023-05-22T01:16:09.750Z,32.85
2023-05-22T01:17:09.699Z,32.85
2023-05-22T01:18:09.812Z,32.89
2023-05-22T01:19:09.847Z,32.88
2023-05-22T01:20:09.827Z,32.89
2023-05-22T01:21:09.889Z,32.86
2023-05-22T01:22:09.935Z,32.88
2023-05-22T01:23:09.982Z,32.89
2023-05-22T01:24:10.020Z,32.89
2023-05-22T01:25:10.086Z,32.89
2023-05-22T01:26:10.146Z,32.89
2023-05-22T01:27:10.212Z,32.86
2023-05-22T01:28:10.259Z,32.92
2023-05-22T01:29:10.283Z,32.94
2023-05-22T01:30:10.343Z,32.91
2023-05-22T01:31:10.391Z,32.86
2023-05-22T01:32:10.476Z,32.92
2023-05-22T01:33:10.566Z,32.92
2023-05-22T01:34:10.560Z,32.95
2023-05-22T01:35:10.623Z,32.92
2023-05-22T01:36:10.655Z,32.90
2023-05-22T01:37:10.719Z,32.94
2023-05-22T01:38:10.769Z,32.92
2023-05-22T01:39:10.821Z,32.93
2023-05-22T01:40:10.867Z,32.94
2023-05-22T01:41:10.909Z,32.93
2023-05-22T01:42:10.968Z,32.90
2023-05-22T01:43:11.003Z,32.96
2023-05-22T01:44:11.056Z,32.95
2023-05-22T01:45:11.113Z,32.92
2023-05-22T01:46:11.180Z,32.95
2023-05-22T01:47:11.213Z,32.93
2023-05-22T01:48:11.271Z,32.90
2023-05-22T01:49:11.308Z,32.94
2023-05-22T01:50:11.371Z,32.92
2023-05-22T01:51:11.430Z,32.97
2023-05-22T01:52:11.527Z,32.98
2023-05-22T01:53:11.539Z,32.96
2023-05-22T01:54:11.565Z,32.93
2023-05-22T01:55:11.628Z,32.99
2023-05-22T01:56:11.697Z,32.95
2023-05-22T01:57:11.741Z,32.96
2023-05-22T01:58:11.778Z,32.95
2023-05-22T01:59:11.824Z,32.99
2023-05-22T02:00:11.885Z,32.96
2023-05-22T02:01:11.963Z,32.99
2023-05-22T02:02:12.034Z,32.97
2023-05-22T02:03:12.238Z,32.96
2023-05-22T02:04:12.072Z,32.96
2023-05-22T02:05:12.129Z,32.95
2023-05-22T02:06:12.188Z,32.96
2023-05-22T02:07:12.596Z,32.97
2023-05-22T02:08:12.294Z,32.95
2023-05-22T02:09:12.334Z,32.95
2023-05-22T02:10:12.418Z,33.03
2023-05-22T02:11:12.462Z,32.96
2023-05-22T02:12:12.543Z,32.97
2023-05-22T02:13:12.579Z,32.99
2023-05-22T02:14:12.644Z,33.00
2023-05-22T02:15:12.676Z,32.96
2023-05-22T02:16:12.775Z,32.99
2023-05-22T02:17:12.775Z,32.97
2023-05-22T02:18:12.990Z,32.96
2023-05-22T02:19:12.979Z,32.97
2023-05-22T02:20:12.958Z,32.96
2023-05-22T02:21:12.993Z,33.02
2023-05-22T02:22:13.084Z,33.02
2023-05-22T02:23:13.111Z,32.95
2023-05-22T02:24:13.156Z,32.97
2023-05-22T02:25:13.240Z,32.96
2023-05-22T02:26:13.270Z,33.00
2023-05-22T02:27:13.350Z,32.99
2023-05-22T02:28:13.397Z,32.97
2023-05-22T02:29:13.457Z,33.02
2023-05-22T02:30:13.519Z,32.99
2023-05-22T02:31:13.584Z,33.00
2023-05-22T02:32:13.633Z,32.97
2023-05-22T02:33:13.713Z,32.97
2023-05-22T02:34:13.761Z,33.03
2023-05-22T02:35:13.823Z,32.99
2023-05-22T02:36:13.878Z,33.00
2023-05-22T02:37:13.971Z,32.97
2023-05-22T02:38:14.016Z,32.99
2023-05-22T02:39:14.089Z,32.97
2023-05-22T02:40:14.152Z,33.02
2023-05-22T02:41:14.208Z,32.99
2023-05-22T02:42:14.316Z,32.95
2023-05-22T02:43:14.301Z,32.97
2023-05-22T02:44:14.356Z,33.03
2023-05-22T02:45:14.429Z,32.99
2023-05-22T02:46:14.560Z,33.03
2023-05-22T02:47:14.558Z,32.99
2023-05-22T02:48:14.627Z,32.99
2023-05-22T02:49:14.640Z,33.02
2023-05-22T02:50:14.681Z,33.02
2023-05-22T02:51:14.749Z,32.99
2023-05-22T02:52:14.850Z,32.97
2023-05-22T02:53:14.855Z,33.02
2023-05-22T02:54:14.916Z,32.96
2023-05-22T02:55:14.968Z,33.03
2023-05-22T02:56:15.041Z,33.00
2023-05-22T02:57:15.130Z,33.00
2023-05-22T02:58:15.134Z,32.97
2023-05-22T02:59:15.189Z,33.03
2023-05-22T03:00:15.255Z,33.03
2023-05-22T03:01:15.345Z,33.00
2023-05-22T03:02:15.419Z,33.05
2023-05-22T03:03:15.438Z,33.03
2023-05-22T03:04:15.477Z,33.06
2023-05-22T03:05:15.540Z,33.06
2023-05-22T03:06:15.592Z,33.07
2023-05-22T03:07:15.699Z,33.05
2023-05-22T03:08:15.711Z,33.02
2023-05-22T03:09:15.766Z,33.03
2023-05-22T03:10:15.824Z,33.02
2023-05-22T03:11:15.877Z,33.05
2023-05-22T03:12:15.957Z,33.02
2023-05-22T03:13:15.992Z,33.09
2023-05-22T03:14:16.036Z,33.05
2023-05-22T03:15:16.112Z,33.01
2023-05-22T03:16:16.165Z,33.09
2023-05-22T03:17:16.241Z,33.05
2023-05-22T03:18:16.279Z,33.03
2023-05-22T03:19:16.425Z,33.07
2023-05-22T03:20:16.414Z,33.05
2023-05-22T03:21:16.467Z,33.04
2023-05-22T03:22:16.572Z,33.03
2023-05-22T03:23:16.581Z,33.04
2023-05-22T03:24:16.645Z,33.05
2023-05-22T03:25:16.698Z,33.04
2023-05-22T03:26:16.761Z,33.06
2023-05-22T03:27:16.853Z,33.06
2023-05-22T03:28:16.917Z,33.06
2023-05-22T03:29:16.999Z,33.07
2023-05-22T03:30:17.035Z,33.11
2023-05-22T03:31:17.075Z,33.08
2023-05-22T03:32:17.173Z,33.04
2023-05-22T03:33:17.250Z,33.10
2023-05-22T03:34:17.274Z,33.10
2023-05-22T03:35:17.336Z,33.07
2023-05-22T03:36:17.393Z,33.06
2023-05-22T03:37:17.481Z,33.04
2023-05-22T03:38:17.658Z,33.08
2023-05-22T03:39:17.578Z,33.13
2023-05-22T03:40:17.631Z,33.07
2023-05-22T03:41:17.689Z,33.10
2023-05-22T03:42:17.751Z,33.06
2023-05-22T03:43:17.844Z,33.08
2023-05-22T03:44:17.903Z,33.07
2023-05-22T03:45:17.953Z,33.07
2023-05-22T03:46:18.066Z,33.07
2023-05-22T03:47:18.102Z,33.10
2023-05-22T03:48:18.129Z,33.06
2023-05-22T03:49:18.223Z,33.06
2023-05-22T03:50:18.274Z,33.06
2023-05-22T03:51:20.083Z,33.10
2023-05-22T03:52:18.371Z,33.08
2023-05-22T03:53:18.455Z,33.06
2023-05-22T03:54:18.511Z,33.08
2023-05-22T03:55:18.651Z,33.06
2023-05-22T03:56:18.629Z,33.13
2023-05-22T03:57:18.741Z,33.07
2023-05-22T03:58:18.765Z,33.11
2023-05-22T03:59:18.807Z,33.13
2023-05-22T04:00:18.877Z,33.08
2023-05-22T04:01:18.941Z,33.10
2023-05-22T04:02:19.069Z,33.07
2023-05-22T04:03:19.251Z,33.04
2023-05-22T04:04:19.125Z,33.07
2023-05-22T04:05:19.210Z,33.04
2023-05-22T04:06:19.257Z,33.14
2023-05-22T04:07:19.324Z,33.13
2023-05-22T04:08:19.358Z,33.08
2023-05-22T04:09:19.421Z,33.10
2023-05-22T04:10:19.510Z,33.04
2023-05-22T04:11:19.538Z,33.07
2023-05-22T04:12:19.663Z,33.07
2023-05-22T04:13:19.672Z,33.11
2023-05-22T04:14:19.736Z,33.08
2023-05-22T04:15:19.804Z,33.11
2023-05-22T04:16:19.909Z,33.09
2023-05-22T04:17:19.968Z,33.07
2023-05-22T04:18:19.989Z,33.07
2023-05-22T04:19:20.085Z,33.06
2023-05-22T04:20:20.107Z,33.07
2023-05-22T04:21:20.158Z,33.09
2023-05-22T04:22:20.234Z,33.06
2023-05-22T04:23:20.308Z,33.04
2023-05-22T04:24:20.335Z,33.08
2023-05-22T04:25:20.404Z,33.09
2023-05-22T04:26:20.472Z,33.07
2023-05-22T04:27:20.595Z,33.06
2023-05-22T04:28:20.566Z,33.07
2023-05-22T04:29:20.633Z,33.00
2023-05-22T04:30:20.715Z,33.06
2023-05-22T04:31:20.797Z,33.09
2023-05-22T04:32:20.822Z,33.03
2023-05-22T04:33:20.870Z,33.09
2023-05-22T04:34:20.938Z,33.02
2023-05-22T04:35:21.006Z,33.05
2023-05-22T04:36:21.062Z,33.04
2023-05-22T04:37:21.126Z,33.09
2023-05-22T04:38:21.182Z,33.02
2023-05-22T04:39:21.266Z,33.07
2023-05-22T04:40:21.318Z,33.06
2023-05-22T04:42:21.424Z,33.03
2023-05-22T04:43:21.465Z,33.02
2023-05-22T04:44:21.538Z,33.05
2023-05-22T04:45:21.587Z,33.06
2023-05-22T04:46:21.821Z,33.03
2023-05-22T04:47:21.709Z,33.03
2023-05-22T04:48:21.748Z,33.05
2023-05-22T04:49:21.812Z,33.02
2023-05-22T04:50:21.878Z,33.02
2023-05-22T04:51:21.924Z,33.06
2023-05-22T04:52:22.000Z,33.00
2023-05-22T04:53:22.041Z,33.05
2023-05-22T04:54:22.106Z,32.99
2023-05-22T04:55:22.188Z,33.03
2023-05-22T04:56:34.817Z,33.05
2023-05-22T04:57:23.221Z,33.05
2023-05-22T04:58:22.200Z,33.02
2023-05-22T04:59:22.307Z,33.03
2023-05-22T05:00:22.211Z,33.06
2023-05-22T05:01:22.222Z,33.03
2023-05-22T05:02:22.190Z,32.99
2023-05-22T05:03:22.233Z,32.97
2023-05-22T05:04:22.177Z,33.06
2023-05-22T05:05:22.163Z,33.01
2023-05-22T05:06:22.147Z,33.04
2023-05-22T05:07:22.708Z,32.99
2023-05-22T05:08:22.265Z,32.99
2023-05-22T05:09:22.304Z,33.00
2023-05-22T05:10:22.369Z,33.00
2023-05-22T05:11:22.444Z,33.00
2023-05-22T05:12:22.468Z,33.02
2023-05-22T05:13:22.536Z,33.02
2023-05-22T05:14:22.563Z,32.97
2023-05-22T05:15:22.618Z,33.02
2023-05-22T05:16:22.685Z,33.00
2023-05-22T05:17:23.277Z,33.03
2023-05-22T05:18:22.761Z,33.00
2023-05-22T05:19:22.829Z,32.97
2023-05-22T05:20:22.862Z,32.99
2023-05-22T05:21:22.931Z,33.01
2023-05-22T05:22:23.229Z,32.99
2023-05-22T05:23:23.004Z,33.00
2023-05-22T05:24:23.091Z,32.97
2023-05-22T05:25:23.152Z,32.98
2023-05-22T05:26:23.214Z,32.98
2023-05-22T05:27:23.234Z,33.01
2023-05-22T05:28:23.329Z,32.95
2023-05-22T05:29:23.339Z,33.04
2023-05-22T05:30:23.414Z,33.05
2023-05-22T05:31:23.477Z,33.05
2023-05-22T05:32:23.600Z,33.08
2023-05-22T05:33:23.567Z,33.07
2023-05-22T05:34:23.627Z,33.11
2023-05-22T05:35:23.708Z,33.18
2023-05-22T05:36:23.703Z,33.85
2023-05-22T05:37:23.782Z,34.05
2023-05-22T05:38:23.839Z,34.54
2023-05-22T05:39:23.873Z,34.37
2023-05-22T05:40:23.927Z,34.50
2023-05-22T05:41:23.935Z,34.55
2023-05-22T05:42:23.982Z,34.74
2023-05-22T05:43:23.991Z,34.86
2023-05-22T05:44:24.064Z,35.13
2023-05-22T05:45:24.071Z,35.23
2023-05-22T05:46:24.140Z,35.19
2023-05-22T05:47:24.322Z,35.17
2023-05-22T05:48:24.066Z,35.17
2023-05-22T05:49:24.152Z,35.06
2023-05-22T05:50:24.115Z,34.89
2023-05-22T05:51:24.120Z,34.81
2023-05-22T05:52:24.109Z,34.74
2023-05-22T05:53:24.111Z,34.75
2023-05-22T05:54:24.108Z,34.78
2023-05-22T05:55:24.175Z,34.76
2023-05-22T05:56:24.176Z,34.81
2023-05-22T05:57:24.210Z,34.70
2023-05-22T05:58:24.183Z,34.73
2023-05-22T05:59:24.207Z,34.68
2023-05-22T06:00:24.185Z,34.67
2023-05-22T06:01:24.275Z,34.66
2023-05-22T06:02:24.365Z,34.66
2023-05-22T06:03:24.404Z,34.64
2023-05-22T06:04:24.377Z,34.61
2023-05-22T06:05:24.336Z,34.68
2023-05-22T06:06:24.341Z,34.64
2023-05-22T06:07:24.355Z,34.69
2023-05-22T06:08:24.390Z,34.64
2023-05-22T06:09:24.402Z,34.70
2023-05-22T06:10:24.412Z,34.69
2023-05-22T06:11:24.453Z,34.68
2023-05-22T06:12:24.469Z,34.68
2023-05-22T06:13:24.522Z,34.70
2023-05-22T06:14:24.504Z,34.66
2023-05-22T06:15:24.566Z,34.66
2023-05-22T06:16:24.667Z,34.70
2023-05-22T06:17:24.651Z,34.67
2023-05-22T06:18:24.619Z,34.71
2023-05-22T06:19:24.721Z,34.70
2023-05-22T06:20:24.702Z,34.66
2023-05-22T06:21:24.717Z,34.63
2023-05-22T06:22:28.574Z,34.66
2023-05-22T06:23:24.734Z,34.66
2023-05-22T06:24:24.706Z,34.62
2023-05-22T06:25:24.716Z,34.62
2023-05-22T06:26:24.688Z,34.58
2023-05-22T06:27:24.720Z,34.62
2023-05-22T06:28:24.701Z,34.59
2023-05-22T06:29:24.686Z,34.59
2023-05-22T06:30:38.951Z,34.62
2023-05-22T06:31:25.680Z,34.59
2023-05-22T06:32:24.786Z,34.53
2023-05-22T06:33:24.748Z,34.53
2023-05-22T06:34:24.729Z,34.53
2023-05-22T06:35:24.796Z,34.55
2023-05-22T06:36:24.630Z,34.54
2023-05-22T06:37:24.611Z,34.93
2023-05-22T06:38:24.605Z,35.07
2023-05-22T06:39:24.602Z,35.05
2023-05-22T06:40:24.612Z,35.05
2023-05-22T06:41:24.624Z,34.83
2023-05-22T06:42:24.662Z,35.29
2023-05-22T06:43:24.637Z,35.29
2023-05-22T06:44:24.631Z,35.12
2023-05-22T06:45:24.585Z,34.98
2023-05-22T06:46:26.060Z,34.90
2023-05-22T06:47:24.917Z,34.77
2023-05-22T06:48:24.542Z,34.75
2023-05-22T06:49:24.552Z,34.70
2023-05-22T06:50:24.535Z,34.89
2023-05-22T06:51:24.576Z,35.00
2023-05-22T06:52:24.492Z,35.04
2023-05-22T06:53:24.485Z,35.13
2023-05-22T06:54:24.534Z,35.26
2023-05-22T06:55:24.609Z,35.32
2023-05-22T06:56:24.707Z,35.38
2023-05-22T06:57:24.719Z,35.35
2023-05-22T06:58:24.764Z,35.36
2023-05-22T06:59:24.815Z,35.46
2023-05-22T07:00:24.873Z,35.52
2023-05-22T07:01:25.016Z,35.52
2023-05-22T07:02:24.964Z,35.63
2023-05-22T07:03:24.987Z,35.69
2023-05-22T07:04:25.001Z,35.78
2023-05-22T07:05:25.104Z,35.81
2023-05-22T07:06:25.060Z,36.05
2023-05-22T07:07:25.095Z,36.13
2023-05-22T07:08:25.102Z,36.20
2023-05-22T07:09:25.164Z,36.31
2023-05-22T07:10:25.128Z,36.43
2023-05-22T07:11:25.140Z,36.54
2023-05-22T07:12:25.279Z,36.66
2023-05-22T07:13:25.231Z,36.73
2023-05-22T07:14:25.215Z,36.84
2023-05-22T07:15:25.207Z,36.90
2023-05-22T07:16:25.279Z,37.05
2023-05-22T07:17:25.296Z,37.18
2023-05-22T07:18:25.256Z,37.16
2023-05-22T07:19:26.290Z,37.34
2023-05-22T07:20:25.262Z,37.39
2023-05-22T07:21:25.331Z,37.45
2023-05-22T07:22:25.769Z,37.61
2023-05-22T07:23:26.484Z,37.69
2023-05-22T07:24:25.327Z,37.79
2023-05-22T07:25:25.281Z,37.94
2023-05-22T07:26:25.270Z,37.98
2023-05-22T07:27:25.301Z,38.22
2023-05-22T07:28:25.278Z,38.39
2023-05-22T07:29:25.311Z,38.42
2023-05-22T07:30:25.363Z,38.45
2023-05-22T07:31:25.386Z,38.62
2023-05-22T07:32:25.445Z,36.68
2023-05-22T07:33:25.797Z,37.63
2023-05-22T07:34:25.579Z,35.45
2023-05-22T07:35:25.426Z,35.79
2023-05-22T07:36:25.389Z,35.58
2023-05-22T07:37:25.411Z,35.57
2023-05-22T07:38:25.791Z,35.78
2023-05-22T07:39:25.556Z,35.66
2023-05-22T07:40:36.183Z,35.95
2023-05-22T07:41:26.431Z,35.87
2023-05-22T07:42:25.784Z,35.72
2023-05-22T07:43:25.781Z,35.95
2023-05-22T07:44:25.406Z,35.81
2023-05-22T07:45:25.414Z,35.91
2023-05-22T07:46:25.483Z,36.27
2023-05-22T07:47:25.431Z,36.39
2023-05-22T07:48:25.410Z,36.58
2023-05-22T07:49:25.360Z,36.74
2023-05-22T07:50:25.432Z,36.80
2023-05-22T07:51:25.346Z,36.93
2023-05-22T07:52:25.337Z,37.02
2023-05-22T07:53:25.334Z,37.14
2023-05-22T07:54:25.374Z,37.14
2023-05-22T07:55:25.336Z,37.37
2023-05-22T07:56:25.309Z,37.43
2023-05-22T07:57:25.305Z,37.54
2023-05-22T07:58:25.286Z,37.62
2023-05-22T07:59:25.299Z,37.74
2023-05-22T08:00:25.346Z,37.80
2023-05-22T08:01:25.267Z,37.92
2023-05-22T08:02:25.367Z,38.02
2023-05-22T08:03:25.387Z,38.01
2023-05-22T08:04:25.359Z,38.18
2023-05-22T08:05:25.273Z,38.11
2023-05-22T08:06:25.279Z,38.23
2023-05-22T08:07:25.234Z,38.27
2023-05-22T08:08:25.332Z,38.37
2023-05-22T08:09:25.374Z,38.39
2023-05-22T08:10:26.554Z,38.41
2023-05-22T08:11:25.531Z,38.50
2023-05-22T08:12:25.413Z,38.74
2023-05-22T08:13:25.402Z,38.67
2023-05-22T08:14:25.414Z,38.81
2023-05-22T08:15:25.429Z,38.91
2023-05-22T08:16:25.432Z,39.03
2023-05-22T08:17:25.485Z,39.15
2023-05-22T08:18:25.422Z,39.27
2023-05-22T08:19:25.451Z,39.31
2023-05-22T08:20:25.477Z,39.45
2023-05-22T08:21:25.371Z,39.51
2023-05-22T08:22:25.361Z,39.47
2023-05-22T08:23:25.376Z,40.01
2023-05-22T08:24:25.360Z,39.59
2023-05-22T08:25:25.338Z,39.50
2023-05-22T08:26:25.515Z,39.28
2023-05-22T08:27:25.438Z,39.32
2023-05-22T08:28:25.839Z,39.21
2023-05-22T08:29:25.317Z,39.23
2023-05-22T08:30:25.308Z,39.12
2023-05-22T08:31:25.299Z,39.21
2023-05-22T08:32:25.419Z,39.19
2023-05-22T08:33:25.307Z,39.16
2023-05-22T08:34:25.339Z,39.12
2023-05-22T08:35:25.251Z,39.05
2023-05-22T08:36:25.256Z,39.09
2023-05-22T08:37:25.257Z,39.05
2023-05-22T08:38:25.324Z,39.00
2023-05-22T08:39:25.279Z,39.01
2023-05-22T08:40:25.267Z,38.96
2023-05-22T08:41:25.233Z,38.95
2023-05-22T08:42:25.318Z,39.22
2023-05-22T08:43:25.237Z,39.27
2023-05-22T08:44:25.263Z,39.26
2023-05-22T08:45:25.229Z,39.31
2023-05-22T08:46:25.207Z,39.42
2023-05-22T08:47:25.225Z,39.58
2023-05-22T08:48:25.299Z,39.81
2023-05-22T08:49:25.298Z,39.85
2023-05-22T08:50:25.175Z,40.21
2023-05-22T08:51:25.159Z,40.42
2023-05-22T08:52:25.144Z,40.58
2023-05-22T08:53:25.171Z,40.77
2023-05-22T08:54:25.308Z,41.07
2023-05-22T08:55:25.177Z,41.41
2023-05-22T08:56:26.768Z,41.65
2023-05-22T08:57:25.124Z,41.78
2023-05-22T08:58:25.108Z,41.89
2023-05-22T08:59:25.417Z,42.26
2023-05-22T09:00:25.094Z,42.24
2023-05-22T09:01:25.128Z,42.70
2023-05-22T09:02:25.111Z,42.77
2023-05-22T09:03:25.182Z,42.87
2023-05-22T09:04:25.086Z,43.07
2023-05-22T09:05:25.063Z,43.36
2023-05-22T09:06:25.074Z,43.35
2023-05-22T09:07:25.047Z,43.38
2023-05-22T09:08:25.056Z,43.50
2023-05-22T09:09:25.046Z,43.76
2023-05-22T09:10:25.053Z,44.22
2023-05-22T09:11:25.057Z,43.97
2023-05-22T09:12:25.012Z,43.84
2023-05-22T09:13:25.020Z,44.45
2023-05-22T09:14:25.042Z,44.11
2023-05-22T09:15:25.275Z,44.14
2023-05-22T09:16:25.138Z,44.25
2023-05-22T09:17:25.024Z,44.26
2023-05-22T09:18:25.014Z,44.31
2023-05-22T09:19:25.017Z,44.43
2023-05-22T09:20:24.995Z,44.66
2023-05-22T09:21:30.202Z,44.83
2023-05-22T09:22:25.967Z,44.91
2023-05-22T09:23:24.967Z,45.06
2023-05-22T09:24:24.952Z,45.00
2023-05-22T09:25:24.952Z,45.09
2023-05-22T09:26:25.005Z,45.29
2023-05-22T09:27:24.931Z,45.26
2023-05-22T09:28:24.950Z,45.27
2023-05-22T09:29:24.909Z,45.24
2023-05-22T09:30:24.903Z,45.36
2023-05-22T09:31:25.001Z,45.26
2023-05-22T09:32:24.937Z,45.28
2023-05-22T09:33:25.376Z,45.16
2023-05-22T09:34:24.896Z,45.11
2023-05-22T09:35:24.878Z,44.71
2023-05-22T09:36:24.866Z,44.55
2023-05-22T09:37:24.865Z,44.31
2023-05-22T09:38:25.328Z,44.01
2023-05-22T09:39:24.874Z,43.75
2023-05-22T09:40:24.875Z,43.51
2023-05-22T09:41:24.937Z,43.32
2023-05-22T09:42:24.965Z,43.02
2023-05-22T09:43:25.334Z,42.32
2023-05-22T09:44:25.020Z,41.57
2023-05-22T09:45:25.034Z,40.44
2023-05-22T09:46:25.105Z,39.87
2023-05-22T09:47:25.121Z,39.95
2023-05-22T09:48:25.358Z,39.94
2023-05-22T09:49:25.175Z,39.18
2023-05-22T09:50:25.176Z,38.26
2023-05-22T09:51:25.233Z,37.98
2023-05-22T09:52:25.274Z,37.74
2023-05-22T09:53:25.361Z,37.03
2023-05-22T09:54:25.323Z,37.02
2023-05-22T09:55:25.370Z,36.87
2023-05-22T09:56:37.826Z,37.06
2023-05-22T09:57:26.462Z,37.13
2023-05-22T09:58:25.413Z,37.11
2023-05-22T09:59:25.423Z,36.90
2023-05-22T10:00:25.387Z,35.98
2023-05-22T10:01:25.396Z,35.42
2023-05-22T10:02:25.412Z,35.21
2023-05-22T10:03:25.441Z,35.15
2023-05-22T10:04:25.473Z,35.44
2023-05-22T10:05:25.437Z,35.56
2023-05-22T10:06:25.536Z,35.49
2023-05-22T10:07:25.580Z,35.50
2023-05-22T10:08:25.606Z,35.54
2023-05-22T10:09:25.688Z,35.38
2023-05-22T10:10:25.742Z,35.58
2023-05-22T10:11:25.789Z,35.32
2023-05-22T10:12:25.857Z,35.06
2023-05-22T10:13:25.915Z,35.24
2023-05-22T10:14:26.010Z,35.45
2023-05-22T10:15:26.028Z,35.53
2023-05-22T10:16:26.260Z,35.44
2023-05-22T10:17:26.174Z,35.32
2023-05-22T10:18:26.261Z,35.40
2023-05-22T10:19:26.383Z,35.36
2023-05-22T10:20:26.334Z,35.27
2023-05-22T10:21:26.429Z,35.01
2023-05-22T10:22:26.445Z,35.07
2023-05-22T10:23:26.506Z,35.17
2023-05-22T10:24:26.847Z,34.65
2023-05-22T10:25:26.613Z,33.46
2023-05-22T10:26:26.671Z,32.94
2023-05-22T10:27:26.723Z,32.55
2023-05-22T10:28:26.788Z,32.85
2023-05-22T10:29:26.883Z,33.16
2023-05-22T10:30:26.972Z,33.21
2023-05-22T10:31:26.981Z,33.19
2023-05-22T10:32:27.110Z,33.19
2023-05-22T10:33:27.135Z,33.19
2023-05-22T10:34:27.358Z,33.29
2023-05-22T10:35:27.262Z,33.27
2023-05-22T10:36:27.199Z,33.30
2023-05-22T10:37:27.237Z,33.34
2023-05-22T10:38:27.245Z,33.33
2023-05-22T10:39:27.238Z,33.38
2023-05-22T10:40:27.258Z,33.38
2023-05-22T10:41:27.229Z,33.45
2023-05-22T10:42:27.224Z,33.45
2023-05-22T10:43:27.289Z,33.49
2023-05-22T10:44:27.225Z,33.48
2023-05-22T10:45:27.258Z,33.56
2023-05-22T10:46:27.323Z,33.57
2023-05-22T10:47:27.230Z,33.59
2023-05-22T10:48:27.230Z,33.67
2023-05-22T10:49:27.254Z,33.68
2023-05-22T10:50:27.247Z,33.72
2023-05-22T10:51:27.345Z,33.79
2023-05-22T10:52:27.274Z,33.83
2023-05-22T10:53:27.304Z,33.83
2023-05-22T10:54:27.347Z,33.89
2023-05-22T10:55:27.375Z,33.90
2023-05-22T10:56:27.344Z,33.95
2023-05-22T10:57:28.363Z,33.97
2023-05-22T10:58:27.415Z,34.00
2023-05-22T10:59:27.432Z,34.01
2023-05-22T11:00:27.422Z,34.00
2023-05-22T11:01:27.546Z,34.06
2023-05-22T11:02:27.537Z,34.09
2023-05-22T11:03:27.625Z,34.08
2023-05-22T11:04:27.553Z,34.12
2023-05-22T11:05:27.530Z,34.09
2023-05-22T11:06:27.593Z,34.10
2023-05-22T11:07:27.683Z,34.16
2023-05-22T11:08:27.876Z,34.19
2023-05-22T11:09:27.617Z,34.19
2023-05-22T11:10:27.682Z,34.19
2023-05-22T11:11:27.679Z,34.24
2023-05-22T11:12:27.707Z,34.27
2023-05-22T11:13:29.347Z,34.25
2023-05-22T11:14:27.797Z,34.30
2023-05-22T11:15:27.816Z,34.29
2023-05-22T11:16:27.857Z,34.32
2023-05-22T11:17:28.049Z,34.32
2023-05-22T11:18:28.013Z,34.35
2023-05-22T11:19:28.011Z,34.33
2023-05-22T11:20:27.936Z,34.33
2023-05-22T11:21:28.000Z,34.48
2023-05-22T11:22:28.002Z,34.46
2023-05-22T11:23:28.467Z,34.46
2023-05-22T11:24:28.091Z,34.47
2023-05-22T11:25:28.128Z,34.43
2023-05-22T11:26:28.275Z,34.43
2023-05-22T11:27:28.175Z,34.41
2023-05-22T11:28:28.226Z,34.44
2023-05-22T11:29:28.235Z,34.43
2023-05-22T11:30:28.278Z,34.50
2023-05-22T11:31:28.299Z,34.48
2023-05-22T11:32:28.354Z,34.46
2023-05-22T11:33:28.379Z,34.46
2023-05-22T11:34:28.391Z,34.47
2023-05-22T11:35:28.434Z,34.50
2023-05-22T11:36:28.455Z,34.51
2023-05-22T11:37:28.520Z,34.46
2023-05-22T11:38:28.536Z,34.50
2023-05-22T11:39:28.658Z,34.48
2023-05-22T11:40:28.596Z,34.48
2023-05-22T11:41:28.985Z,34.48
2023-05-22T11:42:28.673Z,34.51
2023-05-22T11:43:28.720Z,34.48
2023-05-22T11:44:28.829Z,34.49
2023-05-22T11:45:28.817Z,34.49
2023-05-22T11:46:28.878Z,34.48
2023-05-22T11:47:28.880Z,34.48
2023-05-22T11:48:28.914Z,34.51
2023-05-22T11:49:28.949Z,34.44
2023-05-22T11:50:41.719Z,34.48
2023-05-22T11:51:29.977Z,34.43
2023-05-22T11:52:28.943Z,34.51
2023-05-22T11:53:28.948Z,34.47
2023-05-22T11:54:28.942Z,34.44
2023-05-22T11:55:28.962Z,34.48
2023-05-22T11:56:28.906Z,34.44
2023-05-22T11:57:28.943Z,34.37
2023-05-22T11:58:28.922Z,34.40
2023-05-22T11:59:28.904Z,34.44
2023-05-22T12:00:28.932Z,34.43
2023-05-22T12:01:28.885Z,34.38
2023-05-22T12:02:28.956Z,34.37
2023-05-22T12:03:28.917Z,34.35
2023-05-22T12:04:28.857Z,34.36
2023-05-22T12:05:28.909Z,34.33
2023-05-22T12:06:28.957Z,34.32
2023-05-22T12:07:28.931Z,34.33
2023-05-22T12:08:28.980Z,34.32
2023-05-22T12:09:29.011Z,34.32
2023-05-22T12:10:29.034Z,34.32
2023-05-22T12:11:29.164Z,34.30
2023-05-22T12:12:29.134Z,34.28
2023-05-22T12:13:29.170Z,34.31
2023-05-22T12:14:29.189Z,34.28
2023-05-22T12:15:29.225Z,34.31
2023-05-22T12:16:29.279Z,34.31
2023-05-22T12:17:29.303Z,34.27
2023-05-22T12:18:29.358Z,34.28
2023-05-22T12:19:29.489Z,34.31
2023-05-22T12:20:29.448Z,34.28
2023-05-22T12:21:29.449Z,34.32
2023-05-22T12:22:29.532Z,34.29
2023-05-22T12:23:29.556Z,34.27
2023-05-22T12:24:29.582Z,34.30
2023-05-22T12:25:29.634Z,34.31
2023-05-22T12:26:29.653Z,34.25
2023-05-22T12:27:32.416Z,34.29
2023-05-22T12:28:29.690Z,34.30
2023-05-22T12:29:29.687Z,34.27
2023-05-22T12:30:29.668Z,34.30
2023-05-22T12:31:29.696Z,34.23
2023-05-22T12:32:29.764Z,34.32
2023-05-22T12:33:29.661Z,34.31
2023-05-22T12:34:29.659Z,34.24
2023-05-22T12:35:29.633Z,34.28
2023-05-22T12:36:29.633Z,34.29
2023-05-22T12:37:29.621Z,34.24
2023-05-22T12:38:29.661Z,34.28
2023-05-22T12:39:29.615Z,34.27
2023-05-22T12:40:29.620Z,34.26
2023-05-22T12:41:29.629Z,34.28
2023-05-22T12:42:29.615Z,34.25
2023-05-22T12:43:29.679Z,34.24
2023-05-22T12:44:29.604Z,34.27
2023-05-22T12:45:29.605Z,34.29
2023-05-22T12:46:29.621Z,34.29
2023-05-22T12:47:29.586Z,34.29
2023-05-22T12:48:29.543Z,34.28
2023-05-22T12:49:29.551Z,34.25
2023-05-22T12:50:29.577Z,34.29
2023-05-22T12:51:29.585Z,34.28
2023-05-22T12:52:29.532Z,34.32
2023-05-22T12:53:29.544Z,34.33